createdAt,value
2022-09-02T00:00:20.561Z,2.40
2022-09-02T00:05:38.052Z,2.30
2022-09-02T00:10:43.749Z,2.60
2022-09-02T00:15:48.904Z,2.50
2022-09-02T00:20:56.102Z,2.58
2022-09-02T00:25:58.408Z,2.23
2022-09-02T00:31:03.088Z,2.50
2022-09-02T00:36:05.482Z,2.20
2022-09-02T00:41:11.556Z,2.20
2022-09-02T00:46:15.145Z,2.50
2022-09-02T00:51:17.557Z,2.42
2022-09-02T00:56:26.821Z,2.65
2022-09-02T01:01:29.531Z,2.60
2022-09-02T01:06:34.677Z,2.40
2022-09-02T01:11:45.066Z,2.05
2022-09-02T01:16:56.936Z,2.00
2022-09-02T01:22:01.818Z,1.77
2022-09-02T01:27:06.872Z,1.90
2022-09-02T01:32:09.276Z,1.90
2022-09-02T01:37:11.741Z,2.10
2022-09-02T01:42:20.439Z,1.90
2022-09-02T01:47:27.138Z,2.00
2022-09-02T01:52:35.868Z,1.83
2022-09-02T01:57:40.649Z,1.60
2022-09-02T02:02:51.237Z,1.70
2022-09-02T02:07:58.693Z,1.52
2022-09-02T02:13:01.411Z,1.30
2022-09-02T02:18:12.593Z,1.47
2022-09-02T02:23:14.902Z,1.30
2022-09-02T02:28:19.986Z,1.70
2022-09-02T02:33:23.624Z,1.30
2022-09-02T02:38:33.630Z,1.30
2022-09-02T02:43:39.620Z,1.20
2022-09-02T02:48:42.165Z,1.60
2022-09-02T02:53:48.487Z,1.40
2022-09-02T02:58:51.862Z,1.50
2022-09-02T03:03:54.408Z,1.70
2022-09-02T03:08:59.822Z,1.60
2022-09-02T03:14:05.875Z,1.60
2022-09-02T03:19:08.930Z,1.50
2022-09-02T03:24:12.404Z,1.60
2022-09-02T03:29:15.039Z,1.73
2022-09-02T03:34:18.954Z,1.75
2022-09-02T03:39:21.655Z,1.88
2022-09-02T03:44:24.443Z,1.77
2022-09-02T03:49:27.971Z,1.83
2022-09-02T03:54:33.208Z,2.07
2022-09-02T03:59:37.621Z,1.73
2022-09-02T04:04:40.069Z,1.88
2022-09-02T04:09:46.576Z,1.83
2022-09-02T04:14:57.456Z,2.05
2022-09-02T04:20:00.400Z,1.98
2022-09-02T04:25:03.283Z,1.83
2022-09-02T04:30:18.956Z,1.80
2022-09-02T04:35:23.900Z,1.90
2022-09-02T04:40:29.119Z,2.05
2022-09-02T04:45:33.925Z,2.08
2022-09-02T04:50:40.801Z,1.83
2022-09-02T04:55:53.706Z,1.55
2022-09-02T05:01:08.041Z,2.27
2022-09-02T05:06:13.561Z,1.80
2022-09-02T05:11:23.885Z,1.85
2022-09-02T05:16:31.799Z,1.80
2022-09-02T05:21:35.307Z,1.50
2022-09-02T05:26:38.677Z,2.45
2022-09-02T05:31:47.892Z,1.83
2022-09-02T05:36:52.717Z,2.63
2022-09-02T05:41:58.369Z,3.03
2022-09-02T05:47:05.629Z,2.92
2022-09-02T05:52:17.785Z,2.50
2022-09-02T05:57:23.993Z,2.65
2022-09-02T06:02:31.511Z,3.72
2022-09-02T06:07:36.989Z,2.03
2022-09-02T06:12:42.854Z,2.80
2022-09-02T06:17:50.576Z,2.03
2022-09-02T06:22:55.619Z,2.20
2022-09-02T06:28:06.378Z,1.90
2022-09-02T06:33:15.039Z,1.60
2022-09-02T06:38:20.555Z,1.50
2022-09-02T06:43:41.323Z,2.50
2022-09-02T06:48:51.705Z,1.27
2022-09-02T06:53:58.440Z,1.57
2022-09-02T06:59:06.808Z,1.13
2022-09-02T07:04:37.892Z,1.33
2022-09-02T07:09:42.711Z,1.50
2022-09-02T07:14:50.234Z,1.43
2022-09-02T07:20:00.499Z,1.63
2022-09-02T07:25:07.154Z,1.20
2022-09-02T07:30:16.093Z,1.40
2022-09-02T07:35:20.723Z,1.50
2022-09-02T07:40:23.664Z,1.10
2022-09-02T07:45:30.261Z,2.00
2022-09-02T07:50:34.084Z,1.93
2022-09-02T07:55:41.242Z,1.83
2022-09-02T08:00:45.026Z,3.30
2022-09-02T08:05:50.276Z,1.50
2022-09-02T08:10:55.325Z,1.90
2022-09-02T08:16:01.219Z,1.20
2022-09-02T08:21:06.353Z,1.00
2022-09-02T08:26:10.102Z,1.50
2022-09-02T08:31:15.064Z,0.70
2022-09-02T08:36:17.418Z,0.77
2022-09-02T08:41:24.372Z,0.90
2022-09-02T08:46:31.371Z,0.83
2022-09-02T08:51:56.479Z,3.20
2022-09-02T08:57:03.369Z,1.83
2022-09-02T09:02:18.208Z,0.60
2022-09-02T09:07:29.704Z,0.50
2022-09-02T09:12:44.372Z,0.70
2022-09-02T09:17:58.253Z,0.67
2022-09-02T09:23:01.741Z,0.77
2022-09-02T09:28:06.428Z,0.70
2022-09-02T09:33:11.530Z,0.40
2022-09-02T09:38:15.571Z,0.60
2022-09-02T09:43:18.139Z,0.50
2022-09-02T09:48:23.267Z,0.53
2022-09-02T09:53:25.642Z,0.60
2022-09-02T09:58:40.178Z,0.70
2022-09-02T10:03:52.593Z,0.50
2022-09-02T10:08:56.288Z,0.87
2022-09-02T10:14:05.417Z,1.00
2022-09-02T10:19:07.756Z,0.83
2022-09-02T10:24:24.718Z,0.80
2022-09-02T10:29:56.523Z,1.30
2022-09-02T10:35:04.075Z,0.70
2022-09-02T10:40:08.893Z,0.80
2022-09-02T10:45:13.299Z,0.60
2022-09-02T10:50:27.024Z,0.67
2022-09-02T10:55:46.976Z,0.50
2022-09-02T11:00:51.276Z,0.40
2022-09-02T11:06:09.298Z,0.40
2022-09-02T11:11:25.212Z,0.70
2022-09-02T11:16:35.253Z,0.60
2022-09-02T11:21:47.116Z,0.80
2022-09-02T11:26:58.692Z,0.83
2022-09-02T11:32:00.918Z,0.70
2022-09-02T11:37:11.514Z,0.70
2022-09-02T11:42:14.097Z,0.70
2022-09-02T11:47:37.777Z,0.60
2022-09-02T11:52:58.155Z,0.60
2022-09-02T11:58:01.071Z,0.53
2022-09-02T12:03:16.681Z,0.60
2022-09-02T12:08:28.957Z,0.60
2022-09-02T12:13:36.071Z,0.67
2022-09-02T12:18:58.741Z,0.47
2022-09-02T12:24:01.152Z,0.60
2022-09-02T12:29:12.031Z,0.80
2022-09-02T12:34:25.943Z,0.90
2022-09-02T12:39:32.084Z,0.60
2022-09-02T12:45:02.368Z,0.70
2022-09-02T12:50:11.354Z,0.50
2022-09-02T12:55:22.883Z,0.90
2022-09-02T13:00:31.500Z,0.70
2022-09-02T13:05:55.217Z,0.70
2022-09-02T13:11:18.882Z,0.70
2022-09-02T13:16:21.417Z,0.40
2022-09-02T13:21:47.439Z,1.20
2022-09-02T13:26:59.677Z,0.70
2022-09-02T13:32:10.591Z,0.50
2022-09-02T13:37:29.363Z,1.20
2022-09-02T13:42:34.071Z,0.70
2022-09-02T13:47:37.101Z,0.60
2022-09-02T13:53:34.438Z,1.10
2022-09-02T13:58:20.885Z,0.60
2022-09-02T14:03:23.850Z,0.50
2022-09-02T14:08:28.807Z,0.77
2022-09-02T14:13:31.195Z,0.60
2022-09-02T14:18:37.596Z,0.50
2022-09-02T14:23:52.028Z,0.50
2022-09-02T14:28:57.061Z,1.00
2022-09-02T14:34:01.377Z,0.63
2022-09-02T14:39:14.603Z,0.50
2022-09-02T14:44:17.077Z,0.73
2022-09-02T14:49:29.767Z,0.50
2022-09-02T14:54:40.885Z,0.50
2022-09-02T14:59:43.345Z,0.80
2022-09-02T15:04:48.203Z,0.67
2022-09-02T15:30:13.116Z,0.87
2022-09-02T15:35:15.453Z,0.40
2022-09-02T15:40:22.944Z,0.50
2022-09-02T15:45:31.073Z,0.60
2022-09-02T15:50:35.534Z,0.47
2022-09-02T15:55:38.007Z,0.50
2022-09-02T16:00:43.980Z,0.53
2022-09-02T16:05:48.885Z,0.50
2022-09-02T16:10:53.637Z,0.40
2022-09-02T16:16:14.871Z,0.60
2022-09-02T16:21:25.437Z,0.43
2022-09-02T16:26:32.411Z,0.52
2022-09-02T16:31:35.835Z,0.43
2022-09-02T16:36:40.451Z,0.40
2022-09-02T16:41:44.058Z,0.70
2022-09-02T16:46:49.876Z,0.80
2022-09-02T16:57:01.468Z,0.57
2022-09-02T17:02:04.351Z,0.60
2022-09-02T17:07:07.037Z,0.50
2022-09-02T17:12:12.030Z,0.73
2022-09-02T17:17:17.388Z,0.90
2022-09-02T17:22:25.444Z,0.70
2022-09-02T17:27:33.555Z,0.70
2022-09-02T17:32:41.603Z,0.77
2022-09-02T17:37:48.304Z,0.70
2022-09-02T17:42:53.172Z,0.57
2022-09-02T17:47:55.570Z,0.80
2022-09-02T17:53:09.572Z,0.60
2022-09-02T17:58:18.403Z,0.80
2022-09-02T18:03:37.575Z,1.20
2022-09-02T18:08:49.057Z,0.70
2022-09-02T18:14:03.716Z,0.70
2022-09-02T18:19:19.439Z,0.73
2022-09-02T18:24:35.291Z,7.45
2022-09-02T18:29:54.899Z,0.85
2022-09-02T18:35:12.669Z,0.98
2022-09-02T18:40:37.026Z,0.80
2022-09-02T18:45:44.593Z,0.70
2022-09-02T18:50:51.832Z,0.88
2022-09-02T18:55:54.868Z,1.70
2022-09-02T19:00:59.177Z,0.88
2022-09-02T19:06:01.692Z,0.57
2022-09-02T19:11:14.459Z,1.83
2022-09-02T19:16:18.873Z,0.70
2022-09-02T19:21:33.654Z,0.60
2022-09-02T19:26:39.447Z,0.60
2022-09-02T19:31:43.192Z,0.40
2022-09-02T19:36:46.783Z,0.60
2022-09-02T19:41:49.101Z,0.80
2022-09-02T19:47:49.945Z,0.67
2022-09-02T19:52:22.755Z,0.80
2022-09-02T19:57:25.052Z,1.20
2022-09-02T20:02:27.529Z,1.00
2022-09-02T20:07:32.340Z,0.53
2022-09-02T20:12:37.570Z,1.00
2022-09-02T20:17:44.955Z,0.87
2022-09-02T20:22:50.178Z,0.70
2022-09-02T20:28:06.121Z,0.63
2022-09-02T20:33:17.901Z,0.77
2022-09-02T20:38:46.259Z,1.27
2022-09-02T20:43:54.765Z,2.00
2022-09-02T20:48:57.804Z,2.70
2022-09-02T20:54:06.444Z,2.13
2022-09-02T20:59:18.890Z,1.90
2022-09-02T21:04:21.230Z,2.07
2022-09-02T21:09:37.371Z,1.10
2022-09-02T21:14:49.307Z,2.30
2022-09-02T21:20:09.786Z,1.73
2022-09-02T21:25:20.016Z,2.30
2022-09-02T21:30:28.240Z,2.27
2022-09-02T21:35:43.149Z,2.40
2022-09-02T21:40:58.641Z,2.10
2022-09-02T21:46:07.090Z,2.27
2022-09-02T21:51:19.427Z,2.20
2022-09-02T21:56:36.797Z,2.37
2022-09-02T22:01:48.643Z,2.33
2022-09-02T22:06:57.271Z,2.00
2022-09-02T22:12:14.725Z,1.93
2022-09-02T22:17:22.806Z,2.40
2022-09-02T22:22:30.496Z,2.03
2022-09-02T22:27:35.297Z,2.40
2022-09-02T22:32:42.124Z,1.70
2022-09-02T22:37:52.155Z,1.90
2022-09-02T22:42:58.026Z,1.80
2022-09-02T22:48:22.058Z,2.03
2022-09-02T22:53:24.348Z,1.97
2022-09-02T22:58:32.162Z,1.80
2022-09-02T23:03:54.883Z,1.93
2022-09-02T23:09:05.657Z,2.10
2022-09-02T23:14:26.748Z,1.83
2022-09-02T23:19:44.399Z,2.17
2022-09-02T23:25:14.188Z,1.70
2022-09-02T23:30:16.581Z,1.80
2022-09-02T23:35:24.204Z,1.83
2022-09-02T23:40:30.773Z,1.63
2022-09-02T23:45:37.120Z,1.93
2022-09-02T23:50:51.815Z,1.90
2022-09-02T23:56:15.233Z,1.90
